Time;durP1;ratioP1;P1;durP2;ratioP2;P2;SDS_P1;SDS_P2;PMS_P1;PMS_P2;Temp;Humidity;BMP_temperature;BMP_pressure;BME280_temperature;BME280_humidity;BME280_pressure;Samples;Min_cycle;Max_cycle;Signal;HPM_P1;HPM_P2
2022/06/07 00:00:06;;;;;;;13.95;10.18;;;;;;;;;;5068498;27;92470;-78
2022/06/07 00:02:33;;;;;;;15.18;9.70;;;;;;;;;;5070569;27;93880;-78
2022/06/07 00:04:59;;;;;;;13.55;9.70;;;;;;;;;;5058825;27;94370;-78
2022/06/07 00:07:26;;;;;;;14.07;10.35;;;;;;;;;;5060357;27;92495;-78
2022/06/07 00:09:53;;;;;;;15.75;10.02;;;;;;;;;;5068442;27;93188;-77
2022/06/07 00:12:20;;;;;;;12.93;10.48;;;;;;;;;;5067317;27;92450;-78
2022/06/07 00:14:46;;;;;;;13.00;10.50;;;;;;;;;;5052240;27;92421;-78
2022/06/07 00:17:13;;;;;;;16.58;10.45;;;;;;;;;;5063070;27;95367;-78
2022/06/07 00:19:40;;;;;;;18.90;10.20;;;;;;;;;;5058872;27;95610;-78
2022/06/07 00:22:07;;;;;;;14.35;10.60;;;;;;;;;;5061996;27;95446;-77
2022/06/07 00:24:33;;;;;;;15.13;10.73;;;;;;;;;;5074238;27;93605;-77
2022/06/07 00:27:00;;;;;;;15.25;11.32;;;;;;;;;;5090610;27;92466;-78
2022/06/07 00:29:26;;;;;;;16.33;11.68;;;;;;;;;;5069839;27;93062;-78
2022/06/07 00:31:53;;;;;;;19.85;11.70;;;;;;;;;;5089304;27;93862;-78
2022/06/07 00:34:19;;;;;;;14.80;10.85;;;;;;;;;;5090159;27;92325;-77
2022/06/07 00:36:46;;;;;;;18.08;10.95;;;;;;;;;;5073943;27;93433;-77
2022/06/07 00:39:12;;;;;;;15.30;11.05;;;;;;;;;;5089104;27;94487;-78
2022/06/07 00:41:38;;;;;;;15.60;11.90;;;;;;;;;;5083525;27;92830;-78
2022/06/07 00:44:23;;;;;;;18.35;11.95;;;;;;;;;;5087823;27;96833;-78
2022/06/07 00:46:52;;;;;;;16.92;11.77;;;;;;;;;;5078081;27;92417;-78
2022/06/07 00:49:19;;;;;;;21.80;12.52;;;;;;;;;;5076845;27;93074;-78
2022/06/07 00:51:45;;;;;;;17.90;11.65;;;;;;;;;;5075155;27;93421;-78
2022/06/07 00:54:18;;;;;;;19.55;12.45;;;;;;;;;;5079489;27;92454;-78
2022/06/07 00:56:44;;;;;;;19.60;12.20;;;;;;;;;;5090576;27;94131;-78
2022/06/07 00:59:10;;;;;;;17.48;11.82;;;;;;;;;;5083440;27;93207;-78
2022/06/07 01:01:37;;;;;;;23.95;12.40;;;;;;;;;;5081682;27;93506;-78
2022/06/07 01:04:03;;;;;;;21.50;12.80;;;;;;;;;;5074175;27;93932;-78
2022/06/07 01:11:59;;;;;;;22.45;14.02;;;;;;;;;;5095336;27;93133;-78
2022/06/07 01:14:26;;;;;;;24.20;13.02;;;;;;;;;;5092003;27;92546;-77
2022/06/07 01:16:52;;;;;;;22.05;13.95;;;;;;;;;;5074428;27;92645;-77
2022/06/07 01:19:18;;;;;;;18.98;13.50;;;;;;;;;;5084492;27;93511;-78
2022/06/07 01:21:46;;;;;;;28.95;14.52;;;;;;;;;;5076399;27;93494;-78
2022/06/07 01:24:14;;;;;;;25.27;14.23;;;;;;;;;;5071565;27;95441;-78
2022/06/07 01:26:40;;;;;;;23.52;13.90;;;;;;;;;;5098916;27;91709;-78
2022/06/07 01:29:07;;;;;;;22.00;14.48;;;;;;;;;;5081079;27;94180;-78
2022/06/07 01:31:33;;;;;;;22.90;13.60;;;;;;;;;;5072774;27;93065;-77
2022/06/07 01:34:00;;;;;;;24.27;13.50;;;;;;;;;;5071339;27;94795;-77
2022/06/07 01:36:26;;;;;;;19.13;13.85;;;;;;;;;;5077400;27;95595;-78
2022/06/07 01:41:55;;;;;;;24.02;13.85;;;;;;;;;;5062309;27;92451;-78
2022/06/07 01:44:23;;;;;;;22.75;15.10;;;;;;;;;;5074143;27;94004;-78
2022/06/07 01:46:49;;;;;;;18.92;13.13;;;;;;;;;;5075587;27;93169;-78
2022/06/07 01:49:16;;;;;;;21.63;14.93;;;;;;;;;;5077280;27;92410;-78
2022/06/07 01:51:42;;;;;;;19.52;14.35;;;;;;;;;;5055982;27;92546;-78
2022/06/07 01:54:10;;;;;;;27.48;14.63;;;;;;;;;;5078367;27;92619;-78
2022/06/07 01:56:36;;;;;;;26.08;14.45;;;;;;;;;;5079191;27;92927;-78
2022/06/07 01:59:03;;;;;;;19.52;14.45;;;;;;;;;;5082742;27;96746;-78
2022/06/07 02:01:29;;;;;;;24.48;13.80;;;;;;;;;;5087988;27;92643;-78
2022/06/07 02:03:55;;;;;;;25.92;13.80;;;;;;;;;;5072453;27;93218;-78
2022/06/07 02:06:22;;;;;;;26.23;15.02;;;;;;;;;;5074111;27;93406;-78
2022/06/07 02:08:48;;;;;;;23.17;15.63;;;;;;;;;;5084056;27;92729;-78
2022/06/07 02:11:25;;;;;;;21.50;14.75;;;;;;;;;;5058758;27;93916;-78
2022/06/07 02:13:52;;;;;;;23.10;14.88;;;;;;;;;;5078824;27;92594;-78
2022/06/07 02:16:18;;;;;;;28.70;15.65;;;;;;;;;;5081038;27;93242;-78
2022/06/07 02:18:46;;;;;;;24.45;14.60;;;;;;;;;;5093185;27;92739;-78
2022/06/07 02:21:13;;;;;;;19.58;14.52;;;;;;;;;;5088536;27;92494;-78
2022/06/07 02:23:39;;;;;;;20.35;15.13;;;;;;;;;;5068061;27;94772;-78
2022/06/07 02:26:17;;;;;;;23.15;14.57;;;;;;;;;;5057403;27;95952;-78
2022/06/07 02:28:46;;;;;;;25.10;15.93;;;;;;;;;;5057179;27;92481;-78
2022/06/07 02:31:12;;;;;;;25.20;14.60;;;;;;;;;;5088286;27;93301;-78
2022/06/07 02:33:39;;;;;;;22.48;15.10;;;;;;;;;;5090324;27;92583;-78
2022/06/07 02:36:06;;;;;;;22.88;16.58;;;;;;;;;;5088642;27;93229;-77
2022/06/07 02:38:33;;;;;;;22.38;15.07;;;;;;;;;;5075630;27;92551;-77
2022/06/07 02:41:01;;;;;;;23.70;16.38;;;;;;;;;;5048425;27;91713;-78
2022/06/07 02:43:28;;;;;;;23.90;14.75;;;;;;;;;;5085627;27;93536;-78
2022/06/07 02:45:54;;;;;;;19.50;15.07;;;;;;;;;;5084779;27;93653;-78
2022/06/07 02:48:21;;;;;;;20.77;14.50;;;;;;;;;;5085488;27;95006;-78
2022/06/07 02:50:47;;;;;;;23.98;15.40;;;;;;;;;;5071949;27;95318;-78
2022/06/07 02:53:13;;;;;;;21.48;15.30;;;;;;;;;;5079928;27;93227;-78
2022/06/07 02:55:40;;;;;;;23.00;15.90;;;;;;;;;;5093253;27;93560;-78
2022/06/07 02:58:06;;;;;;;23.58;15.00;;;;;;;;;;5087164;27;93031;-78
2022/06/07 03:00:32;;;;;;;26.00;15.40;;;;;;;;;;5073089;27;92625;-78
2022/06/07 03:02:59;;;;;;;24.27;15.93;;;;;;;;;;5096611;27;93184;-78
2022/06/07 03:05:25;;;;;;;22.67;16.05;;;;;;;;;;5078864;27;93499;-78
2022/06/07 03:07:51;;;;;;;23.33;16.50;;;;;;;;;;5079108;27;92390;-78
2022/06/07 03:10:18;;;;;;;23.08;16.85;;;;;;;;;;5081273;27;93771;-78
2022/06/07 03:12:45;;;;;;;27.13;17.02;;;;;;;;;;5048828;27;95951;-78
2022/06/07 03:15:11;;;;;;;25.67;16.92;;;;;;;;;;5062421;27;92457;-78
2022/06/07 03:17:38;;;;;;;26.25;16.75;;;;;;;;;;5083151;27;93473;-78
2022/06/07 03:20:05;;;;;;;25.23;16.77;;;;;;;;;;5077462;27;92448;-78
2022/06/07 03:22:32;;;;;;;25.95;17.02;;;;;;;;;;5057118;27;93231;-78
2022/06/07 03:25:01;;;;;;;26.27;16.60;;;;;;;;;;5085372;27;93070;-78
2022/06/07 03:27:28;;;;;;;29.10;17.55;;;;;;;;;;5075678;27;92468;-78
2022/06/07 03:29:54;;;;;;;28.63;18.33;;;;;;;;;;5075815;27;93031;-78
2022/06/07 03:32:20;;;;;;;27.73;16.88;;;;;;;;;;5091684;27;94616;-78
2022/06/07 03:34:47;;;;;;;26.35;16.92;;;;;;;;;;5091041;27;94065;-78
2022/06/07 03:37:13;;;;;;;22.50;16.27;;;;;;;;;;5085901;27;94792;-78
2022/06/07 03:39:39;;;;;;;26.33;17.80;;;;;;;;;;5071956;27;93248;-78
2022/06/07 03:42:06;;;;;;;25.48;16.55;;;;;;;;;;5067231;27;92831;-78
2022/06/07 03:44:32;;;;;;;28.13;17.55;;;;;;;;;;5086390;27;93094;-78
2022/06/07 03:46:58;;;;;;;26.95;17.00;;;;;;;;;;5090420;27;92439;-77
2022/06/07 03:49:25;;;;;;;26.08;17.70;;;;;;;;;;5095297;27;93204;-78
2022/06/07 03:51:52;;;;;;;23.38;15.80;;;;;;;;;;5076502;27;96048;-78
2022/06/07 03:54:18;;;;;;;32.22;17.55;;;;;;;;;;5074980;27;91740;-78
2022/06/07 03:56:44;;;;;;;24.20;16.90;;;;;;;;;;5076288;27;92620;-78
2022/06/07 03:59:11;;;;;;;25.55;16.70;;;;;;;;;;5062488;27;94067;-78
2022/06/07 04:01:37;;;;;;;26.02;17.90;;;;;;;;;;5083617;27;94733;-78
2022/06/07 04:04:05;;;;;;;25.80;17.40;;;;;;;;;;5080923;27;94389;-78
2022/06/07 04:06:34;;;;;;;25.33;17.40;;;;;;;;;;5075798;27;93298;-78
2022/06/07 04:09:00;;;;;;;24.75;17.27;;;;;;;;;;5077468;27;94337;-78
2022/06/07 04:11:27;;;;;;;24.00;16.70;;;;;;;;;;5087015;27;93594;-78
2022/06/07 04:13:54;;;;;;;22.52;16.60;;;;;;;;;;5086570;27;92429;-78
2022/06/07 04:16:22;;;;;;;23.80;15.98;;;;;;;;;;5084244;27;93309;-78
2022/06/07 04:18:49;;;;;;;24.38;16.08;;;;;;;;;;5071305;27;92638;-78
2022/06/07 04:21:15;;;;;;;28.15;16.38;;;;;;;;;;5091782;27;92444;-78
2022/06/07 04:23:42;;;;;;;25.33;16.25;;;;;;;;;;5075118;27;94027;-78
2022/06/07 04:26:17;;;;;;;24.27;15.90;;;;;;;;;;5076313;27;97812;-78
2022/06/07 04:28:44;;;;;;;24.60;15.85;;;;;;;;;;5083368;27;95407;-78
2022/06/07 04:31:11;;;;;;;20.23;14.48;;;;;;;;;;5083843;27;93223;-78
2022/06/07 04:33:38;;;;;;;23.65;14.25;;;;;;;;;;5063154;27;93325;-78
2022/06/07 04:36:15;;;;;;;19.80;13.68;;;;;;;;;;5058036;27;94249;-78
2022/06/07 04:38:41;;;;;;;17.08;13.55;;;;;;;;;;5082400;27;93551;-78
2022/06/07 04:41:09;;;;;;;20.80;13.20;;;;;;;;;;5089923;27;92571;-78
2022/06/07 04:43:35;;;;;;;22.55;14.23;;;;;;;;;;5074352;27;92686;-77
2022/06/07 04:46:05;;;;;;;20.42;13.98;;;;;;;;;;5074912;27;92490;-77
2022/06/07 04:48:31;;;;;;;16.98;12.75;;;;;;;;;;5076788;27;92977;-76
2022/06/07 04:51:01;;;;;;;18.67;13.10;;;;;;;;;;5073003;27;95908;-78
2022/06/07 04:53:28;;;;;;;23.50;13.85;;;;;;;;;;5061547;27;92338;-78
2022/06/07 04:55:54;;;;;;;19.55;12.98;;;;;;;;;;5095072;27;93051;-78
2022/06/07 04:58:20;;;;;;;24.33;13.95;;;;;;;;;;5083612;27;93617;-78
2022/06/07 05:00:47;;;;;;;19.65;13.23;;;;;;;;;;5089131;27;92481;-78
2022/06/07 05:03:13;;;;;;;19.17;13.70;;;;;;;;;;5085384;27;93289;-78
2022/06/07 05:05:39;;;;;;;20.33;13.95;;;;;;;;;;5089479;27;94007;-78
2022/06/07 05:08:05;;;;;;;18.05;13.50;;;;;;;;;;5090976;27;93561;-77
2022/06/07 05:10:32;;;;;;;18.95;11.85;;;;;;;;;;5074192;27;93441;-76
2022/06/07 05:12:58;;;;;;;18.98;12.40;;;;;;;;;;5073888;27;92578;-78
2022/06/07 05:15:24;;;;;;;17.45;13.27;;;;;;;;;;5083434;27;94790;-78
2022/06/07 05:17:51;;;;;;;20.08;13.43;;;;;;;;;;5085916;27;93916;-78
2022/06/07 05:20:17;;;;;;;18.17;12.73;;;;;;;;;;5073397;27;92371;-78
2022/06/07 05:22:43;;;;;;;19.45;13.35;;;;;;;;;;5052410;27;93300;-78
2022/06/07 05:25:10;;;;;;;20.25;13.93;;;;;;;;;;5056323;27;92515;-78
2022/06/07 05:27:39;;;;;;;18.83;13.02;;;;;;;;;;5053466;27;93275;-78
2022/06/07 05:30:06;;;;;;;22.60;13.88;;;;;;;;;;5053000;27;93230;-78
2022/06/07 05:32:33;;;;;;;21.52;14.60;;;;;;;;;;5052585;27;91706;-78
2022/06/07 05:34:59;;;;;;;21.08;14.35;;;;;;;;;;5048232;27;92515;-78
2022/06/07 05:37:25;;;;;;;18.60;13.65;;;;;;;;;;5031856;27;93215;-76
2022/06/07 05:39:52;;;;;;;18.40;13.20;;;;;;;;;;5045181;27;96650;-75
2022/06/07 05:42:18;;;;;;;22.42;14.15;;;;;;;;;;5053129;27;95654;-75
2022/06/07 05:44:44;;;;;;;22.08;13.65;;;;;;;;;;5052911;27;93850;-75
2022/06/07 05:47:11;;;;;;;18.02;13.38;;;;;;;;;;5052881;27;92414;-75
2022/06/07 05:49:37;;;;;;;24.27;14.50;;;;;;;;;;5053374;27;92427;-75
2022/06/07 05:52:04;;;;;;;20.60;13.55;;;;;;;;;;5052798;27;92545;-72
2022/06/07 05:54:31;;;;;;;20.75;13.52;;;;;;;;;;5072995;27;92332;-74
2022/06/07 05:56:57;;;;;;;19.67;13.90;;;;;;;;;;5062013;27;92669;-74
2022/06/07 05:59:24;;;;;;;18.02;13.32;;;;;;;;;;5049614;27;92605;-73
2022/06/07 06:01:51;;;;;;;20.45;12.93;;;;;;;;;;5036520;27;93214;-73
2022/06/07 06:04:17;;;;;;;23.25;14.35;;;;;;;;;;5014535;27;95896;-74
2022/06/07 06:06:43;;;;;;;19.02;12.40;;;;;;;;;;5052978;27;92404;-78
2022/06/07 06:11:55;;;;;;;16.75;12.13;;;;;;;;;;5051583;27;92846;-72
2022/06/07 06:14:22;;;;;;;16.10;11.68;;;;;;;;;;5052679;27;93372;-76
2022/06/07 06:16:48;;;;;;;17.40;12.35;;;;;;;;;;5053045;27;93541;-74
2022/06/07 06:19:14;;;;;;;20.23;11.55;;;;;;;;;;5053447;27;92443;-76
2022/06/07 06:21:42;;;;;;;18.85;11.73;;;;;;;;;;5031316;27;93380;-75
2022/06/07 06:24:11;;;;;;;17.58;11.32;;;;;;;;;;5053090;27;93814;-75
2022/06/07 06:26:38;;;;;;;14.25;10.73;;;;;;;;;;5053564;27;92422;-75
2022/06/07 06:29:06;;;;;;;19.88;11.98;;;;;;;;;;5051382;27;95197;-74
2022/06/07 06:31:32;;;;;;;19.63;9.95;;;;;;;;;;5049724;27;92575;-75
2022/06/07 06:33:58;;;;;;;14.02;9.90;;;;;;;;;;5050427;27;93358;-75
2022/06/07 06:36:26;;;;;;;15.05;10.25;;;;;;;;;;5052994;27;92437;-75
2022/06/07 06:38:53;;;;;;;12.45;9.95;;;;;;;;;;5034273;27;92465;-75
2022/06/07 06:41:21;;;;;;;17.25;10.13;;;;;;;;;;5054147;27;93016;-75
2022/06/07 06:43:48;;;;;;;25.30;9.13;;;;;;;;;;5049534;27;93428;-74
2022/06/07 06:46:20;;;;;;;11.38;7.75;;;;;;;;;;5054677;27;91702;-74
2022/06/07 06:48:46;;;;;;;11.73;7.18;;;;;;;;;;5053013;27;93344;-74
2022/06/07 06:51:15;;;;;;;16.52;8.07;;;;;;;;;;5053206;27;95205;-75
2022/06/07 06:53:42;;;;;;;11.77;6.90;;;;;;;;;;5050263;27;94742;-74
2022/06/07 06:56:10;;;;;;;18.95;10.82;;;;;;;;;;5051479;27;93531;-75
2022/06/07 06:58:36;;;;;;;9.23;6.95;;;;;;;;;;5053798;27;92475;-75
2022/06/07 07:01:07;;;;;;;12.38;7.15;;;;;;;;;;5055479;27;92387;-75
2022/06/07 07:03:34;;;;;;;10.45;6.93;;;;;;;;;;5056835;27;93130;-75
2022/06/07 07:06:01;;;;;;;10.40;6.63;;;;;;;;;;5056263;27;93235;-73
2022/06/07 07:08:28;;;;;;;16.88;7.22;;;;;;;;;;5056406;27;94078;-75
2022/06/07 07:11:06;;;;;;;9.18;6.75;;;;;;;;;;5033785;27;92577;-75
2022/06/07 07:13:33;;;;;;;7.97;6.60;;;;;;;;;;5060130;27;92433;-75
2022/06/07 07:15:59;;;;;;;11.57;6.18;;;;;;;;;;5051108;27;93533;-75
2022/06/07 07:18:26;;;;;;;11.23;6.95;;;;;;;;;;5043165;27;96508;-79
2022/06/07 07:20:52;;;;;;;9.95;6.68;;;;;;;;;;5053427;27;95417;-74
2022/06/07 07:23:19;;;;;;;10.50;6.78;;;;;;;;;;5055427;27;93527;-78
2022/06/07 07:25:45;;;;;;;10.82;6.32;;;;;;;;;;5060409;27;92710;-78
2022/06/07 07:28:16;;;;;;;10.80;6.95;;;;;;;;;;5057503;27;94227;-78
2022/06/07 07:30:43;;;;;;;11.05;6.85;;;;;;;;;;5056570;27;93450;-77
2022/06/07 07:33:09;;;;;;;10.88;6.43;;;;;;;;;;5054781;27;92491;-74
2022/06/07 07:35:35;;;;;;;11.75;6.82;;;;;;;;;;5063281;27;92983;-75
2022/06/07 07:38:02;;;;;;;9.82;6.45;;;;;;;;;;5055683;27;92546;-74
2022/06/07 07:40:30;;;;;;;12.20;6.72;;;;;;;;;;5053280;27;94041;-74
2022/06/07 07:42:57;;;;;;;12.20;6.50;;;;;;;;;;5034670;27;95924;-75
2022/06/07 07:45:23;;;;;;;7.20;5.75;;;;;;;;;;5023120;27;92434;-74
2022/06/07 07:47:50;;;;;;;7.53;6.50;;;;;;;;;;5056255;27;93138;-75
2022/06/07 07:50:16;;;;;;;10.85;7.10;;;;;;;;;;5056263;27;93468;-74
2022/06/07 07:52:42;;;;;;;7.85;6.38;;;;;;;;;;5056585;27;92410;-74
2022/06/07 07:55:09;;;;;;;8.90;6.55;;;;;;;;;;5056546;27;93245;-74
2022/06/07 07:57:36;;;;;;;9.82;6.20;;;;;;;;;;5059791;27;94613;-74
2022/06/07 08:00:03;;;;;;;13.98;6.43;;;;;;;;;;5038966;27;93117;-74
2022/06/07 08:02:29;;;;;;;10.55;6.50;;;;;;;;;;5055210;27;93491;-74
2022/06/07 08:04:55;;;;;;;10.57;6.93;;;;;;;;;;5054739;27;92785;-74
2022/06/07 08:07:22;;;;;;;11.88;6.22;;;;;;;;;;5052639;27;94803;-74
2022/06/07 08:09:48;;;;;;;9.90;6.93;;;;;;;;;;5055410;27;92450;-75
2022/06/07 08:12:15;;;;;;;11.60;6.97;;;;;;;;;;5055637;27;92517;-74
2022/06/07 08:14:41;;;;;;;10.13;6.68;;;;;;;;;;5056724;27;94504;-74
2022/06/07 08:17:07;;;;;;;13.80;6.70;;;;;;;;;;5055170;27;93422;-74
2022/06/07 08:19:34;;;;;;;11.70;6.47;;;;;;;;;;5059239;27;92404;-74
2022/06/07 08:22:00;;;;;;;13.30;5.53;;;;;;;;;;5055750;27;92597;-74
2022/06/07 08:24:27;;;;;;;12.07;6.45;;;;;;;;;;5038461;27;91689;-75
2022/06/07 08:26:54;;;;;;;14.88;6.35;;;;;;;;;;5056299;27;92399;-75
2022/06/07 08:29:20;;;;;;;8.82;6.50;;;;;;;;;;5055751;27;93457;-74
2022/06/07 08:31:47;;;;;;;9.82;6.57;;;;;;;;;;5053859;27;94830;-74
2022/06/07 08:39:44;;;;;;;12.45;6.43;;;;;;;;;;5059085;27;92403;-75
2022/06/07 08:42:15;;;;;;;10.02;6.43;;;;;;;;;;5055495;27;93454;-75
2022/06/07 08:44:43;;;;;;;10.65;6.13;;;;;;;;;;5055785;27;92457;-74
2022/06/07 08:47:19;;;;;;;8.35;6.38;;;;;;;;;;5054965;27;92478;-75
2022/06/07 08:49:46;;;;;;;9.20;6.90;;;;;;;;;;5054219;27;92335;-74
2022/06/07 08:52:19;;;;;;;13.32;6.55;;;;;;;;;;5054804;27;92785;-75
2022/06/07 08:54:50;;;;;;;8.70;6.03;;;;;;;;;;5055972;27;92966;-74
2022/06/07 08:57:21;;;;;;;13.88;5.32;;;;;;;;;;5053302;27;96122;-74
2022/06/07 08:59:50;;;;;;;9.93;5.90;;;;;;;;;;5055624;27;92454;-75
2022/06/07 09:02:19;;;;;;;11.32;5.60;;;;;;;;;;5057539;27;93177;-74
2022/06/07 09:04:46;;;;;;;8.82;5.50;;;;;;;;;;5055232;27;92429;-75
2022/06/07 09:07:14;;;;;;;9.93;5.97;;;;;;;;;;5055236;27;93136;-74
2022/06/07 09:12:30;;;;;;;9.07;5.80;;;;;;;;;;5055723;27;92804;-75
2022/06/07 09:14:59;;;;;;;6.25;5.40;;;;;;;;;;5056404;27;92949;-75
2022/06/07 09:17:39;;;;;;;9.73;5.78;;;;;;;;;;5054598;27;93448;-75
2022/06/07 09:20:06;;;;;;;;;;;;;;;;;;5054711;27;92525;-75
2022/06/07 09:22:48;;;;;;;6.93;5.22;;;;;;;;;;5054857;27;123395;-75
2022/06/07 09:25:26;;;;;;;7.38;5.60;;;;;;;;;;5037753;28;93846;-75
2022/06/07 09:27:53;;;;;;;12.27;5.45;;;;;;;;;;5034953;28;93252;-75
2022/06/07 09:30:27;;;;;;;10.32;5.93;;;;;;;;;;5040247;27;93322;-74
2022/06/07 09:32:53;;;;;;;15.55;6.00;;;;;;;;;;5055122;27;92501;-74
2022/06/07 09:35:23;;;;;;;8.18;5.45;;;;;;;;;;5054954;27;93017;-75
2022/06/07 09:37:56;;;;;;;10.33;6.30;;;;;;;;;;5054899;27;93216;-75
2022/06/07 09:40:26;;;;;;;9.88;5.95;;;;;;;;;;5055316;27;91601;-75
2022/06/07 09:42:56;;;;;;;8.82;6.45;;;;;;;;;;5055052;27;92396;-74
2022/06/07 09:45:28;;;;;;;10.30;6.32;;;;;;;;;;5053855;27;93760;-74
2022/06/07 09:47:55;;;;;;;18.52;7.60;;;;;;;;;;5057008;27;94804;-75
2022/06/07 09:50:32;;;;;;;6.78;6.05;;;;;;;;;;5036630;27;93395;-75
2022/06/07 09:53:09;;;;;;;7.47;5.93;;;;;;;;;;5054911;27;92434;-75
2022/06/07 09:55:46;;;;;;;7.38;6.13;;;;;;;;;;5055654;27;92746;-75
2022/06/07 09:58:30;;;;;;;7.28;6.00;;;;;;;;;;5054841;27;93233;-75
2022/06/07 10:01:26;;;;;;;13.05;5.88;;;;;;;;;;5053783;27;92489;-75
2022/06/07 10:03:56;;;;;;;6.40;5.20;;;;;;;;;;5032347;27;94087;-75
2022/06/07 10:06:29;;;;;;;9.63;5.68;;;;;;;;;;5055125;27;93060;-75
2022/06/07 10:09:16;;;;;;;5.65;5.03;;;;;;;;;;5054234;27;92715;-74
2022/06/07 10:12:04;;;;;;;10.98;5.70;;;;;;;;;;5057593;27;93487;-75
2022/06/07 10:14:37;;;;;;;9.10;5.55;;;;;;;;;;5052164;27;95007;-75
2022/06/07 10:17:22;;;;;;;7.13;5.22;;;;;;;;;;5054340;27;95554;-75
2022/06/07 10:19:56;;;;;;;10.10;6.03;;;;;;;;;;5053969;27;93311;-74
2022/06/07 10:22:41;;;;;;;8.38;5.88;;;;;;;;;;5055053;27;92246;-75
2022/06/07 10:25:14;;;;;;;11.90;5.55;;;;;;;;;;5035178;27;93169;-75
2022/06/07 10:27:59;;;;;;;5.40;4.20;;;;;;;;;;5033693;28;93776;-75
2022/06/07 10:30:30;;;;;;;8.55;4.53;;;;;;;;;;5049684;27;92544;-75
2022/06/07 10:33:17;;;;;;;7.57;4.70;;;;;;;;;;5061042;27;92966;-74
2022/06/07 10:35:43;;;;;;;4.82;4.28;;;;;;;;;;5058139;27;92407;-75
2022/06/07 10:38:11;;;;;;;5.03;4.45;;;;;;;;;;5057806;27;93279;-75
2022/06/07 10:41:06;;;;;;;5.90;4.55;;;;;;;;;;5055969;27;96008;-75
2022/06/07 10:43:41;;;;;;;5.20;4.70;;;;;;;;;;5034738;27;94158;-74
2022/06/07 10:46:10;;;;;;;10.85;5.20;;;;;;;;;;5057717;27;93343;-75
2022/06/07 10:48:52;;;;;;;4.70;4.20;;;;;;;;;;5058229;27;93407;-75
2022/06/07 10:54:14;;;;;;;5.78;5.00;;;;;;;;;;5057492;27;93281;-74
2022/06/07 10:56:44;;;;;;;6.97;5.50;;;;;;;;;;5041666;27;93436;-75
2022/06/07 10:59:17;;;;;;;9.88;5.43;;;;;;;;;;5057701;27;93125;-75
2022/06/07 11:01:55;;;;;;;7.63;5.80;;;;;;;;;;5057047;27;93810;-75
2022/06/07 11:10:32;;;;;;;7.85;6.38;;;;;;;;;;5057500;27;94442;-75
2022/06/07 11:13:02;;;;;;;8.27;6.40;;;;;;;;;;5056762;27;92390;-75
2022/06/07 11:15:31;;;;;;;12.32;7.22;;;;;;;;;;5052757;27;93315;-75
2022/06/07 11:18:00;;;;;;;10.15;6.13;;;;;;;;;;5037253;28;94574;-75
2022/06/07 11:20:36;;;;;;;8.05;5.55;;;;;;;;;;5047948;27;92465;-74
2022/06/07 11:23:24;;;;;;;10.30;6.75;;;;;;;;;;5058722;27;93834;-75
2022/06/07 11:25:59;;;;;;;7.93;6.20;;;;;;;;;;5076926;27;91748;-75
2022/06/07 11:28:35;;;;;;;10.23;6.63;;;;;;;;;;5077520;27;92366;-75
2022/06/07 11:31:02;;;;;;;8.88;6.57;;;;;;;;;;5077172;27;93402;-75
2022/06/07 11:33:31;;;;;;;14.93;7.05;;;;;;;;;;5076078;27;94809;-75
2022/06/07 11:36:04;;;;;;;10.90;6.40;;;;;;;;;;5078008;27;95232;-75
2022/06/07 11:38:32;;;;;;;10.32;7.25;;;;;;;;;;5077782;27;92365;-75
2022/06/07 11:41:36;;;;;;;10.18;6.75;;;;;;;;;;5076383;27;92381;-75
2022/06/07 11:44:11;;;;;;;10.77;7.78;;;;;;;;;;5079453;27;93287;-75
2022/06/07 11:46:40;;;;;;;13.50;7.80;;;;;;;;;;5077152;27;92440;-75
2022/06/07 11:49:23;;;;;;;14.13;8.02;;;;;;;;;;5076692;27;93109;-75
2022/06/07 11:51:52;;;;;;;13.27;9.02;;;;;;;;;;5077201;27;93308;-74
2022/06/07 11:54:22;;;;;;;12.10;8.65;;;;;;;;;;5075756;27;93780;-75
2022/06/07 11:56:50;;;;;;;16.90;8.80;;;;;;;;;;5075456;27;92919;-75
2022/06/07 11:59:16;;;;;;;9.98;7.47;;;;;;;;;;5075308;27;95569;-75
2022/06/07 12:01:45;;;;;;;11.63;7.63;;;;;;;;;;5077241;27;92314;-75
2022/06/07 12:04:29;;;;;;;11.05;8.45;;;;;;;;;;5076856;27;92345;-75
2022/06/07 12:07:17;;;;;;;17.83;9.10;;;;;;;;;;5080346;27;94376;-75
2022/06/07 12:09:49;;;;;;;11.32;8.88;;;;;;;;;;5076843;27;92991;-75
2022/06/07 12:12:18;;;;;;;11.65;7.72;;;;;;;;;;5076365;27;93472;-75
2022/06/07 12:14:45;;;;;;;18.00;7.15;;;;;;;;;;5076075;27;92471;-74
2022/06/07 12:17:20;;;;;;;12.13;7.95;;;;;;;;;;5077568;27;92802;-75
2022/06/07 12:19:47;;;;;;;10.90;7.72;;;;;;;;;;5074282;27;94421;-75
2022/06/07 12:22:18;;;;;;;9.48;7.60;;;;;;;;;;5055269;27;92432;-75
2022/06/07 12:24:58;;;;;;;7.35;6.63;;;;;;;;;;5054351;27;94763;-75
2022/06/07 12:27:37;;;;;;;9.98;7.43;;;;;;;;;;5037739;27;94492;-75
2022/06/07 12:30:25;;;;;;;10.40;6.80;;;;;;;;;;5059438;27;92453;-74
2022/06/07 12:32:52;;;;;;;10.00;6.47;;;;;;;;;;5038230;27;93395;-75
2022/06/07 12:35:18;;;;;;;7.75;6.70;;;;;;;;;;5055340;27;92685;-75
2022/06/07 12:37:46;;;;;;;21.23;8.30;;;;;;;;;;5055429;27;93200;-75
2022/06/07 12:40:21;;;;;;;15.63;7.70;;;;;;;;;;5055747;27;93286;-75
2022/06/07 12:42:48;;;;;;;8.85;7.38;;;;;;;;;;5056287;27;91636;-75
2022/06/07 12:45:26;;;;;;;11.15;6.88;;;;;;;;;;5037682;27;92466;-75
2022/06/07 12:47:57;;;;;;;11.50;7.40;;;;;;;;;;5054741;27;93443;-75
2022/06/07 12:50:27;;;;;;;11.38;6.82;;;;;;;;;;5057136;27;94878;-75
2022/06/07 12:52:54;;;;;;;7.13;6.30;;;;;;;;;;5055577;27;93607;-75
2022/06/07 12:55:28;;;;;;;10.93;6.38;;;;;;;;;;5055322;27;92438;-75
2022/06/07 12:58:02;;;;;;;9.70;6.18;;;;;;;;;;5055684;27;93009;-75
2022/06/07 13:00:31;;;;;;;14.82;6.43;;;;;;;;;;5055523;27;92392;-75
2022/06/07 13:03:00;;;;;;;11.63;6.38;;;;;;;;;;5054786;27;93875;-75
2022/06/07 13:05:29;;;;;;;9.55;5.75;;;;;;;;;;5055259;27;93238;-75
2022/06/07 13:07:57;;;;;;;14.00;6.25;;;;;;;;;;5055879;27;93138;-75
2022/06/07 13:10:28;;;;;;;6.43;5.82;;;;;;;;;;5056022;27;92401;-75
2022/06/07 13:12:56;;;;;;;12.18;5.82;;;;;;;;;;5058814;27;93962;-75
2022/06/07 13:15:25;;;;;;;9.80;7.53;;;;;;;;;;5052214;27;94997;-75
2022/06/07 13:17:54;;;;;;;9.67;6.93;;;;;;;;;;5055338;27;95521;-75
2022/06/07 13:20:32;;;;;;;11.50;6.80;;;;;;;;;;5054506;27;93322;-75
2022/06/07 13:22:59;;;;;;;11.20;6.60;;;;;;;;;;5054416;27;92448;-75
2022/06/07 13:25:31;;;;;;;9.18;6.95;;;;;;;;;;5035750;28;92408;-75
2022/06/07 13:27:59;;;;;;;9.18;5.97;;;;;;;;;;5037206;27;93468;-75
2022/06/07 13:30:36;;;;;;;9.77;6.85;;;;;;;;;;5055476;27;92446;-75
2022/06/07 13:33:08;;;;;;;9.70;5.93;;;;;;;;;;5055733;27;91919;-75
2022/06/07 13:35:40;;;;;;;14.55;7.32;;;;;;;;;;5057809;27;92422;-75
2022/06/07 13:38:22;;;;;;;16.67;7.07;;;;;;;;;;5054419;27;93052;-75
2022/06/07 13:40:58;;;;;;;11.70;8.05;;;;;;;;;;5052726;27;96414;-75
2022/06/07 13:43:25;;;;;;;10.82;7.93;;;;;;;;;;5053712;27;92510;-75
2022/06/07 13:45:52;;;;;;;9.30;7.13;;;;;;;;;;5054837;27;93265;-75
2022/06/07 13:53:21;;;;;;;14.50;6.35;;;;;;;;;;5054711;27;93227;-75
2022/06/07 13:54:13;;;;;;;7.32;6.03;;;;;;;;;;5054755;27;93383;-75
2022/06/07 13:56:39;;;;;;;12.90;5.30;;;;;;;;;;5054660;27;93919;-75
2022/06/07 13:59:06;;;;;;;8.38;5.60;;;;;;;;;;5056968;27;91880;-75
2022/06/07 14:01:34;;;;;;;10.48;5.78;;;;;;;;;;5054290;27;92396;-75
2022/06/07 14:04:03;;;;;;;10.30;6.95;;;;;;;;;;5054708;27;92416;-75
2022/06/07 14:06:31;;;;;;;8.63;6.65;;;;;;;;;;5053714;27;94752;-75
2022/06/07 14:08:59;;;;;;;11.27;5.50;;;;;;;;;;5057515;27;93497;-75
2022/06/07 14:11:26;;;;;;;9.93;5.43;;;;;;;;;;5057974;27;92640;-75
2022/06/07 14:13:53;;;;;;;6.95;5.18;;;;;;;;;;5058295;27;92341;-75
2022/06/07 14:16:24;;;;;;;8.55;5.70;;;;;;;;;;5057982;27;93531;-75
2022/06/07 14:18:51;;;;;;;5.97;5.22;;;;;;;;;;5058328;27;92394;-75
2022/06/07 14:21:17;;;;;;;12.95;5.93;;;;;;;;;;5061032;27;92424;-75
2022/06/07 14:23:43;;;;;;;10.02;7.35;;;;;;;;;;5057382;27;91658;-75
2022/06/07 14:26:12;;;;;;;9.90;7.00;;;;;;;;;;5058067;27;92585;-76
2022/06/07 14:28:39;;;;;;;6.95;5.50;;;;;;;;;;5057944;27;93526;-75
2022/06/07 14:31:06;;;;;;;32.05;7.30;;;;;;;;;;5056155;27;94912;-75
2022/06/07 14:33:32;;;;;;;6.05;5.07;;;;;;;;;;5057715;27;95694;-75
2022/06/07 14:35:59;;;;;;;8.70;5.57;;;;;;;;;;5056816;27;93636;-75
2022/06/07 14:38:25;;;;;;;12.60;6.93;;;;;;;;;;5057784;27;92449;-76
2022/06/07 14:40:51;;;;;;;12.07;6.15;;;;;;;;;;5057893;27;93238;-75
2022/06/07 14:43:21;;;;;;;10.35;5.97;;;;;;;;;;5060983;27;94802;-75
2022/06/07 14:45:49;;;;;;;5.43;4.88;;;;;;;;;;5058451;27;94773;-75
2022/06/07 14:48:24;;;;;;;8.48;5.32;;;;;;;;;;5057942;27;92731;-75
2022/06/07 14:50:50;;;;;;;9.40;5.47;;;;;;;;;;5056731;27;93929;-75
2022/06/07 14:53:17;;;;;;;9.20;6.50;;;;;;;;;;5055596;27;92980;-75
2022/06/07 14:55:43;;;;;;;8.90;6.43;;;;;;;;;;5055894;27;95894;-75
2022/06/07 14:58:09;;;;;;;13.52;7.07;;;;;;;;;;5057813;27;92338;-76
2022/06/07 15:00:36;;;;;;;7.05;6.35;;;;;;;;;;5058092;27;94241;-75
2022/06/07 15:03:05;;;;;;;11.38;6.53;;;;;;;;;;5060850;27;94492;-75
2022/06/07 15:05:32;;;;;;;11.55;6.32;;;;;;;;;;5056550;27;93399;-75
2022/06/07 15:08:03;;;;;;;8.40;6.43;;;;;;;;;;5057042;27;92369;-75
2022/06/07 15:10:32;;;;;;;10.38;6.82;;;;;;;;;;5057313;27;92463;-76